sensor_id;sensor_type;location;lat;lon;timestamp;temperature;humidity
37594;DHT22;23441;50.856;6.076;2023-02-10T00:01:23;3.30;99.90
37594;DHT22;23441;50.856;6.076;2023-02-10T00:03:49;3.30;99.90
37594;DHT22;23441;50.856;6.076;2023-02-10T00:06:16;3.30;99.90
37594;DHT22;23441;50.856;6.076;2023-02-10T00:08:45;3.30;99.90
37594;DHT22;23441;50.856;6.076;2023-02-10T00:11:11;3.30;99.90
37594;DHT22;23441;50.856;6.076;2023-02-10T00:13:38;3.30;99.90
37594;DHT22;23441;50.856;6.076;2023-02-10T00:16:05;3.30;99.90
37594;DHT22;23441;50.856;6.076;2023-02-10T00:18:32;3.20;99.90
37594;DHT22;23441;50.856;6.076;2023-02-10T00:21:06;3.20;99.90
37594;DHT22;23441;50.856;6.076;2023-02-10T00:23:32;3.20;99.90
37594;DHT22;23441;50.856;6.076;2023-02-10T00:25:57;3.30;99.90
37594;DHT22;23441;50.856;6.076;2023-02-10T00:28:23;3.30;99.90
37594;DHT22;23441;50.856;6.076;2023-02-10T00:30:49;3.30;99.90
37594;DHT22;23441;50.856;6.076;2023-02-10T00:33:14;3.30;99.90
37594;DHT22;23441;50.856;6.076;2023-02-10T00:35:40;3.40;99.90
37594;DHT22;23441;50.856;6.076;2023-02-10T00:38:05;3.30;99.90
37594;DHT22;23441;50.856;6.076;2023-02-10T00:40:31;3.30;99.90
37594;DHT22;23441;50.856;6.076;2023-02-10T00:42:57;3.30;99.90
37594;DHT22;23441;50.856;6.076;2023-02-10T00:45:22;3.30;99.90
37594;DHT22;23441;50.856;6.076;2023-02-10T00:47:48;3.40;99.90
37594;DHT22;23441;50.856;6.076;2023-02-10T00:50:15;3.40;99.90
37594;DHT22;23441;50.856;6.076;2023-02-10T00:52:40;3.30;99.90
37594;DHT22;23441;50.856;6.076;2023-02-10T00:55:06;3.40;99.90
37594;DHT22;23441;50.856;6.076;2023-02-10T00:57:32;3.40;99.90
37594;DHT22;23441;50.856;6.076;2023-02-10T00:59:58;3.40;99.90
37594;DHT22;23441;50.856;6.076;2023-02-10T01:02:23;3.30;99.90
37594;DHT22;23441;50.856;6.076;2023-02-10T01:04:49;3.40;99.90
37594;DHT22;23441;50.856;6.076;2023-02-10T01:07:16;3.30;99.90
37594;DHT22;23441;50.856;6.076;2023-02-10T01:09:41;3.30;99.90
37594;DHT22;23441;50.856;6.076;2023-02-10T01:12:08;3.30;99.90
37594;DHT22;23441;50.856;6.076;2023-02-10T01:14:34;3.30;99.90
37594;DHT22;23441;50.856;6.076;2023-02-10T01:16:59;3.40;99.90
37594;DHT22;23441;50.856;6.076;2023-02-10T01:19:25;3.30;99.90
37594;DHT22;23441;50.856;6.076;2023-02-10T01:21:51;3.40;99.90
37594;DHT22;23441;50.856;6.076;2023-02-10T01:24:16;3.30;99.90
37594;DHT22;23441;50.856;6.076;2023-02-10T01:26:42;3.30;99.90
37594;DHT22;23441;50.856;6.076;2023-02-10T01:29:08;3.30;99.90
37594;DHT22;23441;50.856;6.076;2023-02-10T01:31:33;3.30;99.90
37594;DHT22;23441;50.856;6.076;2023-02-10T01:33:59;3.30;99.90
37594;DHT22;23441;50.856;6.076;2023-02-10T01:36:25;3.30;99.90
37594;DHT22;23441;50.856;6.076;2023-02-10T01:38:51;3.30;99.90
37594;DHT22;23441;50.856;6.076;2023-02-10T01:41:20;3.30;99.90
37594;DHT22;23441;50.856;6.076;2023-02-10T01:44:06;3.20;99.90
37594;DHT22;23441;50.856;6.076;2023-02-10T01:46:51;3.30;99.90
37594;DHT22;23441;50.856;6.076;2023-02-10T01:49:28;3.30;99.90
37594;DHT22;23441;50.856;6.076;2023-02-10T01:52:02;3.30;99.90
37594;DHT22;23441;50.856;6.076;2023-02-10T01:54:39;3.30;99.90
37594;DHT22;23441;50.856;6.076;2023-02-10T01:57:06;3.30;99.90
37594;DHT22;23441;50.856;6.076;2023-02-10T01:59:35;3.30;99.90
37594;DHT22;23441;50.856;6.076;2023-02-10T02:02:02;3.30;99.90
37594;DHT22;23441;50.856;6.076;2023-02-10T02:04:49;3.30;99.90
37594;DHT22;23441;50.856;6.076;2023-02-10T02:07:15;3.30;99.90
37594;DHT22;23441;50.856;6.076;2023-02-10T02:09:41;3.30;99.90
37594;DHT22;23441;50.856;6.076;2023-02-10T02:14:37;3.30;99.90
37594;DHT22;23441;50.856;6.076;2023-02-10T02:17:11;3.30;99.90
37594;DHT22;23441;50.856;6.076;2023-02-10T02:19:48;3.30;99.90
37594;DHT22;23441;50.856;6.076;2023-02-10T02:23:21;3.30;99.90
37594;DHT22;23441;50.856;6.076;2023-02-10T02:32:18;3.30;99.90
37594;DHT22;23441;50.856;6.076;2023-02-10T02:37:23;3.30;99.90
37594;DHT22;23441;50.856;6.076;2023-02-10T02:39:52;3.30;99.90
37594;DHT22;23441;50.856;6.076;2023-02-10T02:42:21;3.30;99.90
37594;DHT22;23441;50.856;6.076;2023-02-10T02:44:54;3.20;99.90
37594;DHT22;23441;50.856;6.076;2023-02-10T02:52:58;3.20;99.90
37594;DHT22;23441;50.856;6.076;2023-02-10T02:58:02;3.20;99.90
37594;DHT22;23441;50.856;6.076;2023-02-10T03:00:32;3.20;99.90
37594;DHT22;23441;50.856;6.076;2023-02-10T03:02:59;3.20;99.90
37594;DHT22;23441;50.856;6.076;2023-02-10T03:05:31;3.20;99.90
37594;DHT22;23441;50.856;6.076;2023-02-10T03:07:57;3.20;99.90
37594;DHT22;23441;50.856;6.076;2023-02-10T03:10:23;3.20;99.90
37594;DHT22;23441;50.856;6.076;2023-02-10T03:12:49;3.20;99.90
37594;DHT22;23441;50.856;6.076;2023-02-10T03:15:16;3.20;99.90
37594;DHT22;23441;50.856;6.076;2023-02-10T03:17:42;3.20;99.90
37594;DHT22;23441;50.856;6.076;2023-02-10T03:20:08;3.10;99.90
37594;DHT22;23441;50.856;6.076;2023-02-10T03:22:33;3.00;99.90
37594;DHT22;23441;50.856;6.076;2023-02-10T03:24:59;2.90;99.90
37594;DHT22;23441;50.856;6.076;2023-02-10T03:27:25;2.80;99.90
37594;DHT22;23441;50.856;6.076;2023-02-10T03:29:50;2.70;99.90
37594;DHT22;23441;50.856;6.076;2023-02-10T03:32:18;2.50;99.90
37594;DHT22;23441;50.856;6.076;2023-02-10T03:34:44;2.40;99.90
37594;DHT22;23441;50.856;6.076;2023-02-10T03:37:10;2.40;99.90
37594;DHT22;23441;50.856;6.076;2023-02-10T03:39:35;2.30;99.90
37594;DHT22;23441;50.856;6.076;2023-02-10T03:42:01;2.20;99.90
37594;DHT22;23441;50.856;6.076;2023-02-10T03:44:27;2.10;99.90
37594;DHT22;23441;50.856;6.076;2023-02-10T03:46:52;2.00;99.90
37594;DHT22;23441;50.856;6.076;2023-02-10T03:49:18;1.90;99.90
37594;DHT22;23441;50.856;6.076;2023-02-10T03:51:44;1.90;99.90
37594;DHT22;23441;50.856;6.076;2023-02-10T03:54:09;1.90;99.90
37594;DHT22;23441;50.856;6.076;2023-02-10T03:56:35;1.90;99.90
37594;DHT22;23441;50.856;6.076;2023-02-10T03:59:02;1.90;99.90
37594;DHT22;23441;50.856;6.076;2023-02-10T04:01:28;1.80;99.90
37594;DHT22;23441;50.856;6.076;2023-02-10T04:03:53;1.70;99.90
37594;DHT22;23441;50.856;6.076;2023-02-10T04:06:19;1.70;99.90
37594;DHT22;23441;50.856;6.076;2023-02-10T04:08:47;1.70;99.90
37594;DHT22;23441;50.856;6.076;2023-02-10T04:11:13;1.80;99.90
37594;DHT22;23441;50.856;6.076;2023-02-10T04:13:39;1.80;99.90
37594;DHT22;23441;50.856;6.076;2023-02-10T04:16:08;1.80;99.90
37594;DHT22;23441;50.856;6.076;2023-02-10T04:18:34;1.70;99.90
37594;DHT22;23441;50.856;6.076;2023-02-10T04:21:02;1.70;99.90
37594;DHT22;23441;50.856;6.076;2023-02-10T04:23:29;1.70;99.90
37594;DHT22;23441;50.856;6.076;2023-02-10T04:25:55;1.50;99.90
37594;DHT22;23441;50.856;6.076;2023-02-10T04:28:21;1.50;99.90
37594;DHT22;23441;50.856;6.076;2023-02-10T04:30:51;1.40;99.90
37594;DHT22;23441;50.856;6.076;2023-02-10T04:33:16;1.30;99.90
37594;DHT22;23441;50.856;6.076;2023-02-10T04:35:42;1.30;99.90
37594;DHT22;23441;50.856;6.076;2023-02-10T04:38:09;1.30;99.90
37594;DHT22;23441;50.856;6.076;2023-02-10T04:40:36;1.20;99.90
37594;DHT22;23441;50.856;6.076;2023-02-10T04:43:02;1.20;99.90
37594;DHT22;23441;50.856;6.076;2023-02-10T04:45:27;1.20;99.90
37594;DHT22;23441;50.856;6.076;2023-02-10T04:47:53;1.20;99.90
37594;DHT22;23441;50.856;6.076;2023-02-10T04:50:18;1.20;99.90
37594;DHT22;23441;50.856;6.076;2023-02-10T04:52:44;1.20;99.90
37594;DHT22;23441;50.856;6.076;2023-02-10T04:55:10;1.20;99.90
37594;DHT22;23441;50.856;6.076;2023-02-10T04:57:35;1.10;99.90
37594;DHT22;23441;50.856;6.076;2023-02-10T05:00:01;1.10;99.90
37594;DHT22;23441;50.856;6.076;2023-02-10T05:02:27;1.10;99.90
37594;DHT22;23441;50.856;6.076;2023-02-10T05:04:52;1.10;99.90
37594;DHT22;23441;50.856;6.076;2023-02-10T05:07:18;1.00;99.90
37594;DHT22;23441;50.856;6.076;2023-02-10T05:09:43;0.90;99.90
37594;DHT22;23441;50.856;6.076;2023-02-10T05:12:09;0.90;99.90
37594;DHT22;23441;50.856;6.076;2023-02-10T05:14:35;0.80;99.90
37594;DHT22;23441;50.856;6.076;2023-02-10T05:17:00;0.80;99.90
37594;DHT22;23441;50.856;6.076;2023-02-10T05:19:26;0.90;99.90
37594;DHT22;23441;50.856;6.076;2023-02-10T05:21:52;0.90;99.90
37594;DHT22;23441;50.856;6.076;2023-02-10T05:24:18;0.90;99.90
37594;DHT22;23441;50.856;6.076;2023-02-10T05:26:43;0.80;99.90
37594;DHT22;23441;50.856;6.076;2023-02-10T05:29:09;0.80;99.90
37594;DHT22;23441;50.856;6.076;2023-02-10T05:31:34;0.70;99.90
37594;DHT22;23441;50.856;6.076;2023-02-10T05:34:00;0.70;99.90
37594;DHT22;23441;50.856;6.076;2023-02-10T05:36:26;0.70;99.90
37594;DHT22;23441;50.856;6.076;2023-02-10T05:38:51;0.60;99.90
37594;DHT22;23441;50.856;6.076;2023-02-10T05:41:36;0.60;99.90
37594;DHT22;23441;50.856;6.076;2023-02-10T05:44:02;0.60;99.90
37594;DHT22;23441;50.856;6.076;2023-02-10T05:46:27;0.60;99.90
37594;DHT22;23441;50.856;6.076;2023-02-10T05:48:53;0.60;99.90
37594;DHT22;23441;50.856;6.076;2023-02-10T05:51:19;0.70;99.90
37594;DHT22;23441;50.856;6.076;2023-02-10T05:53:45;0.90;99.90
37594;DHT22;23441;50.856;6.076;2023-02-10T05:56:10;0.90;99.90
37594;DHT22;23441;50.856;6.076;2023-02-10T05:58:36;0.90;99.90
37594;DHT22;23441;50.856;6.076;2023-02-10T06:01:06;0.90;99.90
37594;DHT22;23441;50.856;6.076;2023-02-10T06:03:32;0.90;99.90
37594;DHT22;23441;50.856;6.076;2023-02-10T06:05:58;1.00;99.90
37594;DHT22;23441;50.856;6.076;2023-02-10T06:08:24;1.00;99.90
37594;DHT22;23441;50.856;6.076;2023-02-10T06:10:50;1.00;99.90
37594;DHT22;23441;50.856;6.076;2023-02-10T06:13:15;1.00;99.90
37594;DHT22;23441;50.856;6.076;2023-02-10T06:15:41;1.10;99.90
37594;DHT22;23441;50.856;6.076;2023-02-10T06:18:07;1.10;99.90
37594;DHT22;23441;50.856;6.076;2023-02-10T06:20:32;1.10;99.90
37594;DHT22;23441;50.856;6.076;2023-02-10T06:22:58;1.10;99.90
37594;DHT22;23441;50.856;6.076;2023-02-10T06:25:23;1.00;99.90
37594;DHT22;23441;50.856;6.076;2023-02-10T06:27:49;1.10;99.90
37594;DHT22;23441;50.856;6.076;2023-02-10T06:30:15;1.10;99.90
37594;DHT22;23441;50.856;6.076;2023-02-10T06:32:41;1.10;99.90
37594;DHT22;23441;50.856;6.076;2023-02-10T06:35:06;1.10;99.90
37594;DHT22;23441;50.856;6.076;2023-02-10T06:37:32;1.10;99.90
37594;DHT22;23441;50.856;6.076;2023-02-10T06:39:58;1.00;99.90
37594;DHT22;23441;50.856;6.076;2023-02-10T06:42:24;0.90;99.90
37594;DHT22;23441;50.856;6.076;2023-02-10T06:44:49;0.90;99.90
37594;DHT22;23441;50.856;6.076;2023-02-10T06:47:15;1.00;99.90
37594;DHT22;23441;50.856;6.076;2023-02-10T06:49:41;0.90;99.90
37594;DHT22;23441;50.856;6.076;2023-02-10T06:52:06;0.90;99.90
37594;DHT22;23441;50.856;6.076;2023-02-10T06:54:32;0.90;99.90
37594;DHT22;23441;50.856;6.076;2023-02-10T06:56:58;0.90;99.90
37594;DHT22;23441;50.856;6.076;2023-02-10T06:59:24;0.90;99.90
37594;DHT22;23441;50.856;6.076;2023-02-10T07:01:49;0.90;99.90
37594;DHT22;23441;50.856;6.076;2023-02-10T07:04:15;1.00;99.90
37594;DHT22;23441;50.856;6.076;2023-02-10T07:06:40;1.10;99.90
37594;DHT22;23441;50.856;6.076;2023-02-10T07:09:06;1.10;99.90
37594;DHT22;23441;50.856;6.076;2023-02-10T07:11:33;1.20;99.90
37594;DHT22;23441;50.856;6.076;2023-02-10T07:13:58;1.30;99.90
37594;DHT22;23441;50.856;6.076;2023-02-10T07:16:24;1.40;99.90
37594;DHT22;23441;50.856;6.076;2023-02-10T07:18:50;1.50;99.90
37594;DHT22;23441;50.856;6.076;2023-02-10T07:21:16;1.50;99.90
37594;DHT22;23441;50.856;6.076;2023-02-10T07:23:41;1.60;99.90
37594;DHT22;23441;50.856;6.076;2023-02-10T07:26:07;1.70;99.90
37594;DHT22;23441;50.856;6.076;2023-02-10T07:28:34;1.70;99.90
37594;DHT22;23441;50.856;6.076;2023-02-10T07:30:59;1.70;99.90
37594;DHT22;23441;50.856;6.076;2023-02-10T07:33:25;1.70;99.90
37594;DHT22;23441;50.856;6.076;2023-02-10T07:35:51;1.70;99.90
37594;DHT22;23441;50.856;6.076;2023-02-10T07:38:17;1.70;99.90
37594;DHT22;23441;50.856;6.076;2023-02-10T07:40:42;1.80;99.90
37594;DHT22;23441;50.856;6.076;2023-02-10T07:43:08;1.80;99.90
37594;DHT22;23441;50.856;6.076;2023-02-10T07:45:33;1.90;99.90
37594;DHT22;23441;50.856;6.076;2023-02-10T07:47:59;1.90;99.90
37594;DHT22;23441;50.856;6.076;2023-02-10T07:50:25;2.00;99.90
37594;DHT22;23441;50.856;6.076;2023-02-10T07:52:51;2.10;99.90
37594;DHT22;23441;50.856;6.076;2023-02-10T07:55:18;2.10;99.90
37594;DHT22;23441;50.856;6.076;2023-02-10T07:57:44;2.20;99.90
37594;DHT22;23441;50.856;6.076;2023-02-10T08:00:11;2.20;99.90
37594;DHT22;23441;50.856;6.076;2023-02-10T08:02:37;2.30;99.90
37594;DHT22;23441;50.856;6.076;2023-02-10T08:05:04;2.30;99.90
37594;DHT22;23441;50.856;6.076;2023-02-10T08:07:30;2.40;99.90
37594;DHT22;23441;50.856;6.076;2023-02-10T08:09:55;2.40;99.90
37594;DHT22;23441;50.856;6.076;2023-02-10T08:12:21;2.50;99.90
37594;DHT22;23441;50.856;6.076;2023-02-10T08:14:47;2.60;99.90
37594;DHT22;23441;50.856;6.076;2023-02-10T08:17:12;2.70;99.90
37594;DHT22;23441;50.856;6.076;2023-02-10T08:19:38;2.80;99.90
37594;DHT22;23441;50.856;6.076;2023-02-10T08:22:04;2.90;99.90
37594;DHT22;23441;50.856;6.076;2023-02-10T08:24:31;3.00;99.90
37594;DHT22;23441;50.856;6.076;2023-02-10T08:26:56;3.00;99.90
37594;DHT22;23441;50.856;6.076;2023-02-10T08:29:22;3.10;99.90
37594;DHT22;23441;50.856;6.076;2023-02-10T08:31:51;3.20;99.90
37594;DHT22;23441;50.856;6.076;2023-02-10T08:34:19;3.30;99.90
37594;DHT22;23441;50.856;6.076;2023-02-10T08:36:45;3.50;99.90
37594;DHT22;23441;50.856;6.076;2023-02-10T08:39:12;3.70;99.90
37594;DHT22;23441;50.856;6.076;2023-02-10T08:41:38;3.70;99.90
37594;DHT22;23441;50.856;6.076;2023-02-10T08:44:04;3.70;99.90
37594;DHT22;23441;50.856;6.076;2023-02-10T08:46:31;3.80;99.90
37594;DHT22;23441;50.856;6.076;2023-02-10T08:48:56;3.90;99.90
37594;DHT22;23441;50.856;6.076;2023-02-10T08:51:26;4.10;99.90
37594;DHT22;23441;50.856;6.076;2023-02-10T08:53:52;4.20;99.90
37594;DHT22;23441;50.856;6.076;2023-02-10T08:56:18;4.10;99.90
37594;DHT22;23441;50.856;6.076;2023-02-10T08:58:45;4.20;99.90
37594;DHT22;23441;50.856;6.076;2023-02-10T09:01:13;4.10;99.90
37594;DHT22;23441;50.856;6.076;2023-02-10T09:03:40;4.10;99.90
37594;DHT22;23441;50.856;6.076;2023-02-10T09:06:17;4.20;99.90
37594;DHT22;23441;50.856;6.076;2023-02-10T09:08:44;4.20;99.90
37594;DHT22;23441;50.856;6.076;2023-02-10T09:11:10;4.20;99.90
37594;DHT22;23441;50.856;6.076;2023-02-10T09:13:36;4.20;99.90
37594;DHT22;23441;50.856;6.076;2023-02-10T09:16:02;4.20;99.90
37594;DHT22;23441;50.856;6.076;2023-02-10T09:18:28;4.20;99.90
37594;DHT22;23441;50.856;6.076;2023-02-10T09:20:53;4.20;99.90
37594;DHT22;23441;50.856;6.076;2023-02-10T09:23:19;4.30;99.90
37594;DHT22;23441;50.856;6.076;2023-02-10T09:25:55;4.40;99.90
37594;DHT22;23441;50.856;6.076;2023-02-10T09:28:21;4.50;99.90
37594;DHT22;23441;50.856;6.076;2023-02-10T09:30:47;4.80;99.90
37594;DHT22;23441;50.856;6.076;2023-02-10T09:33:13;4.90;99.90
37594;DHT22;23441;50.856;6.076;2023-02-10T09:35:39;5.00;99.90
37594;DHT22;23441;50.856;6.076;2023-02-10T09:38:07;5.10;99.90
37594;DHT22;23441;50.856;6.076;2023-02-10T09:40:36;5.10;99.90
37594;DHT22;23441;50.856;6.076;2023-02-10T09:43:24;5.10;99.90
37594;DHT22;23441;50.856;6.076;2023-02-10T09:45:57;5.20;99.90
37594;DHT22;23441;50.856;6.076;2023-02-10T09:48:59;5.30;99.90
37594;DHT22;23441;50.856;6.076;2023-02-10T09:51:43;5.40;99.90
37594;DHT22;23441;50.856;6.076;2023-02-10T09:54:13;5.50;99.90
37594;DHT22;23441;50.856;6.076;2023-02-10T09:56:40;5.50;99.90
37594;DHT22;23441;50.856;6.076;2023-02-10T09:59:12;5.60;99.90
37594;DHT22;23441;50.856;6.076;2023-02-10T10:01:46;5.60;99.90
37594;DHT22;23441;50.856;6.076;2023-02-10T10:04:17;5.60;99.90
37594;DHT22;23441;50.856;6.076;2023-02-10T10:06:50;5.60;99.90
37594;DHT22;23441;50.856;6.076;2023-02-10T10:12:00;5.60;99.90
37594;DHT22;23441;50.856;6.076;2023-02-10T10:14:36;5.60;99.90
37594;DHT22;23441;50.856;6.076;2023-02-10T10:30:32;6.00;99.90
37594;DHT22;23441;50.856;6.076;2023-02-10T10:33:14;6.00;99.90
37594;DHT22;23441;50.856;6.076;2023-02-10T10:35:43;6.20;99.90
37594;DHT22;23441;50.856;6.076;2023-02-10T10:38:23;6.30;99.90
37594;DHT22;23441;50.856;6.076;2023-02-10T10:40:53;6.30;99.90
37594;DHT22;23441;50.856;6.076;2023-02-10T10:43:29;6.50;99.90
37594;DHT22;23441;50.856;6.076;2023-02-10T10:45:59;6.60;99.90
37594;DHT22;23441;50.856;6.076;2023-02-10T10:48:29;6.60;99.90
37594;DHT22;23441;50.856;6.076;2023-02-10T10:50:59;6.60;99.90
37594;DHT22;23441;50.856;6.076;2023-02-10T10:56:15;6.60;99.90
37594;DHT22;23441;50.856;6.076;2023-02-10T10:58:44;6.70;99.90
37594;DHT22;23441;50.856;6.076;2023-02-10T11:01:13;6.80;99.90
37594;DHT22;23441;50.856;6.076;2023-02-10T11:03:39;6.90;99.90
37594;DHT22;23441;50.856;6.076;2023-02-10T11:06:11;7.00;99.90
37594;DHT22;23441;50.856;6.076;2023-02-10T11:11:13;7.10;99.90
37594;DHT22;23441;50.856;6.076;2023-02-10T11:13:49;7.10;99.90
37594;DHT22;23441;50.856;6.076;2023-02-10T11:16:16;7.10;99.90
37594;DHT22;23441;50.856;6.076;2023-02-10T11:18:59;7.20;99.90
37594;DHT22;23441;50.856;6.076;2023-02-10T11:21:39;7.00;99.90
37594;DHT22;23441;50.856;6.076;2023-02-10T11:27:00;6.90;99.90
37594;DHT22;23441;50.856;6.076;2023-02-10T11:29:31;6.80;99.90
37594;DHT22;23441;50.856;6.076;2023-02-10T11:31:58;6.90;99.90
37594;DHT22;23441;50.856;6.076;2023-02-10T11:34:30;7.00;99.90
37594;DHT22;23441;50.856;6.076;2023-02-10T11:36:58;7.00;99.90
37594;DHT22;23441;50.856;6.076;2023-02-10T11:39:33;7.10;99.90
37594;DHT22;23441;50.856;6.076;2023-02-10T11:42:20;7.10;99.90
37594;DHT22;23441;50.856;6.076;2023-02-10T11:47:33;7.00;99.90
37594;DHT22;23441;50.856;6.076;2023-02-10T11:49:59;7.10;99.90
37594;DHT22;23441;50.856;6.076;2023-02-10T11:52:27;7.20;99.90
37594;DHT22;23441;50.856;6.076;2023-02-10T11:54:56;7.50;99.90
37594;DHT22;23441;50.856;6.076;2023-02-10T12:03:00;8.20;99.90
37594;DHT22;23441;50.856;6.076;2023-02-10T12:08:27;8.30;99.90
37594;DHT22;23441;50.856;6.076;2023-02-10T12:11:03;8.30;99.90
37594;DHT22;23441;50.856;6.076;2023-02-10T12:13:51;8.30;99.90
37594;DHT22;23441;50.856;6.076;2023-02-10T12:21:48;8.00;99.90
37594;DHT22;23441;50.856;6.076;2023-02-10T12:24:43;7.90;99.90
37594;DHT22;23441;50.856;6.076;2023-02-10T12:27:45;7.90;99.90
37594;DHT22;23441;50.856;6.076;2023-02-10T12:30:33;7.90;99.90
37594;DHT22;23441;50.856;6.076;2023-02-10T12:38:26;8.10;99.90
37594;DHT22;23441;50.856;6.076;2023-02-10T12:44:06;8.30;99.90
37594;DHT22;23441;50.856;6.076;2023-02-10T12:46:56;8.40;99.90
37594;DHT22;23441;50.856;6.076;2023-02-10T12:52:23;8.80;99.90
37594;DHT22;23441;50.856;6.076;2023-02-10T12:54:53;8.80;99.90
37594;DHT22;23441;50.856;6.076;2023-02-10T12:58:13;8.70;99.90
37594;DHT22;23441;50.856;6.076;2023-02-10T13:02:46;8.80;99.90
37594;DHT22;23441;50.856;6.076;2023-02-10T13:05:22;8.90;99.90
37594;DHT22;23441;50.856;6.076;2023-02-10T13:13:05;8.90;99.90
37594;DHT22;23441;50.856;6.076;2023-02-10T13:15:45;8.90;99.90
37594;DHT22;23441;50.856;6.076;2023-02-10T13:18:29;8.70;99.90
37594;DHT22;23441;50.856;6.076;2023-02-10T13:20:58;8.80;99.90
37594;DHT22;23441;50.856;6.076;2023-02-10T13:33:43;8.70;99.90
37594;DHT22;23441;50.856;6.076;2023-02-10T13:36:15;8.70;99.90
37594;DHT22;23441;50.856;6.076;2023-02-10T13:38:42;8.80;99.90
37594;DHT22;23441;50.856;6.076;2023-02-10T13:41:24;8.80;99.90
37594;DHT22;23441;50.856;6.076;2023-02-10T13:44:30;8.90;99.90
37594;DHT22;23441;50.856;6.076;2023-02-10T13:49:53;8.70;99.90
37594;DHT22;23441;50.856;6.076;2023-02-10T13:52:25;8.60;99.90
37594;DHT22;23441;50.856;6.076;2023-02-10T13:55:24;8.50;99.90
37594;DHT22;23441;50.856;6.076;2023-02-10T13:57:58;8.50;99.90
37594;DHT22;23441;50.856;6.076;2023-02-10T14:00:27;8.50;99.90
37594;DHT22;23441;50.856;6.076;2023-02-10T14:05:49;8.60;99.90
37594;DHT22;23441;50.856;6.076;2023-02-10T14:11:48;8.80;99.90
37594;DHT22;23441;50.856;6.076;2023-02-10T14:14:04;8.70;99.90
37594;DHT22;23441;50.856;6.076;2023-02-10T14:16:42;8.70;99.90
37594;DHT22;23441;50.856;6.076;2023-02-10T14:19:24;8.50;99.90
37594;DHT22;23441;50.856;6.076;2023-02-10T14:21:53;8.50;99.90
37594;DHT22;23441;50.856;6.076;2023-02-10T14:24:25;8.40;99.90
37594;DHT22;23441;50.856;6.076;2023-02-10T14:26:52;8.40;99.90
37594;DHT22;23441;50.856;6.076;2023-02-10T14:29:19;8.20;99.90
37594;DHT22;23441;50.856;6.076;2023-02-10T14:31:55;8.10;99.90
37594;DHT22;23441;50.856;6.076;2023-02-10T14:34:27;8.10;99.90
37594;DHT22;23441;50.856;6.076;2023-02-10T14:36:58;8.10;99.90
37594;DHT22;23441;50.856;6.076;2023-02-10T14:39:26;8.20;99.90
37594;DHT22;23441;50.856;6.076;2023-02-10T14:41:58;8.30;99.90
37594;DHT22;23441;50.856;6.076;2023-02-10T14:44:45;8.30;99.90
37594;DHT22;23441;50.856;6.076;2023-02-10T14:47:24;8.30;99.90
37594;DHT22;23441;50.856;6.076;2023-02-10T14:49:55;8.20;99.90
37594;DHT22;23441;50.856;6.076;2023-02-10T14:52:29;8.20;99.90
37594;DHT22;23441;50.856;6.076;2023-02-10T14:54:55;8.20;99.90
37594;DHT22;23441;50.856;6.076;2023-02-10T14:57:22;8.20;99.90
37594;DHT22;23441;50.856;6.076;2023-02-10T14:59:55;8.30;99.90
37594;DHT22;23441;50.856;6.076;2023-02-10T15:02:24;8.30;99.90
37594;DHT22;23441;50.856;6.076;2023-02-10T15:05:02;8.20;99.90
37594;DHT22;23441;50.856;6.076;2023-02-10T15:07:34;8.20;99.90
37594;DHT22;23441;50.856;6.076;2023-02-10T15:10:27;8.10;99.90
37594;DHT22;23441;50.856;6.076;2023-02-10T15:12:56;8.10;99.90
37594;DHT22;23441;50.856;6.076;2023-02-10T15:21:35;8.00;99.90
37594;DHT22;23441;50.856;6.076;2023-02-10T15:24:01;7.90;99.90
37594;DHT22;23441;50.856;6.076;2023-02-10T15:26:29;8.00;99.90
37594;DHT22;23441;50.856;6.076;2023-02-10T15:29:24;8.00;99.90
37594;DHT22;23441;50.856;6.076;2023-02-10T15:31:57;8.00;99.90
37594;DHT22;23441;50.856;6.076;2023-02-10T15:34:28;8.00;99.90
37594;DHT22;23441;50.856;6.076;2023-02-10T15:37:03;7.90;99.90
37594;DHT22;23441;50.856;6.076;2023-02-10T15:39:33;7.90;99.90
37594;DHT22;23441;50.856;6.076;2023-02-10T15:42:02;7.90;99.90
37594;DHT22;23441;50.856;6.076;2023-02-10T15:44:32;7.90;99.90
37594;DHT22;23441;50.856;6.076;2023-02-10T15:49:46;8.00;99.90
37594;DHT22;23441;50.856;6.076;2023-02-10T15:52:38;8.00;99.90
37594;DHT22;23441;50.856;6.076;2023-02-10T15:55:10;7.90;99.90
37594;DHT22;23441;50.856;6.076;2023-02-10T15:57:38;7.90;99.90
37594;DHT22;23441;50.856;6.076;2023-02-10T16:00:11;7.80;99.90
37594;DHT22;23441;50.856;6.076;2023-02-10T16:02:40;7.70;99.90
37594;DHT22;23441;50.856;6.076;2023-02-10T16:05:06;7.70;99.90
37594;DHT22;23441;50.856;6.076;2023-02-10T16:07:32;7.70;99.90
37594;DHT22;23441;50.856;6.076;2023-02-10T16:09:57;7.60;99.90
37594;DHT22;23441;50.856;6.076;2023-02-10T16:12:24;7.60;99.90
37594;DHT22;23441;50.856;6.076;2023-02-10T16:14:50;7.60;99.90
37594;DHT22;23441;50.856;6.076;2023-02-10T16:17:25;7.50;99.90
37594;DHT22;23441;50.856;6.076;2023-02-10T16:19:52;7.50;99.90
37594;DHT22;23441;50.856;6.076;2023-02-10T16:22:18;7.40;99.90
37594;DHT22;23441;50.856;6.076;2023-02-10T16:24:43;7.40;99.90
37594;DHT22;23441;50.856;6.076;2023-02-10T16:27:12;7.30;99.90
37594;DHT22;23441;50.856;6.076;2023-02-10T16:29:38;7.30;99.90
37594;DHT22;23441;50.856;6.076;2023-02-10T16:32:04;7.30;99.90
37594;DHT22;23441;50.856;6.076;2023-02-10T16:34:30;7.20;99.90
37594;DHT22;23441;50.856;6.076;2023-02-10T16:36:59;7.10;99.90
37594;DHT22;23441;50.856;6.076;2023-02-10T16:39:25;7.10;99.90
37594;DHT22;23441;50.856;6.076;2023-02-10T16:41:54;7.00;99.90
37594;DHT22;23441;50.856;6.076;2023-02-10T16:44:21;6.90;99.90
37594;DHT22;23441;50.856;6.076;2023-02-10T16:46:47;6.80;99.90
37594;DHT22;23441;50.856;6.076;2023-02-10T16:49:14;6.80;99.90
37594;DHT22;23441;50.856;6.076;2023-02-10T16:51:41;6.70;99.90
37594;DHT22;23441;50.856;6.076;2023-02-10T16:54:07;6.60;99.90
37594;DHT22;23441;50.856;6.076;2023-02-10T16:56:38;6.60;99.90
37594;DHT22;23441;50.856;6.076;2023-02-10T16:59:05;6.50;99.90
37594;DHT22;23441;50.856;6.076;2023-02-10T17:01:31;6.50;99.90
37594;DHT22;23441;50.856;6.076;2023-02-10T17:03:57;6.40;99.90
37594;DHT22;23441;50.856;6.076;2023-02-10T17:06:23;6.30;99.90
37594;DHT22;23441;50.856;6.076;2023-02-10T17:08:51;6.30;99.90
37594;DHT22;23441;50.856;6.076;2023-02-10T17:11:17;6.30;99.90
37594;DHT22;23441;50.856;6.076;2023-02-10T17:13:42;6.20;99.90
37594;DHT22;23441;50.856;6.076;2023-02-10T17:18:49;6.00;99.90
37594;DHT22;23441;50.856;6.076;2023-02-10T17:21:15;5.80;99.90
37594;DHT22;23441;50.856;6.076;2023-02-10T17:23:40;5.80;99.90
37594;DHT22;23441;50.856;6.076;2023-02-10T17:26:10;5.80;99.90
37594;DHT22;23441;50.856;6.076;2023-02-10T17:28:36;5.80;99.90
37594;DHT22;23441;50.856;6.076;2023-02-10T17:31:02;5.80;99.90
37594;DHT22;23441;50.856;6.076;2023-02-10T17:33:28;5.70;99.90
37594;DHT22;23441;50.856;6.076;2023-02-10T17:35:54;5.70;99.90
37594;DHT22;23441;50.856;6.076;2023-02-10T17:38:20;5.80;99.90
37594;DHT22;23441;50.856;6.076;2023-02-10T17:41:06;5.80;99.90
37594;DHT22;23441;50.856;6.076;2023-02-10T17:43:32;5.80;99.90
37594;DHT22;23441;50.856;6.076;2023-02-10T17:45:58;5.90;99.90
37594;DHT22;23441;50.856;6.076;2023-02-10T17:48:23;5.80;99.90